createdAt,value
2023-11-18T00:01:56.317Z,100.00
2023-11-18T00:04:25.371Z,100.00
2023-11-18T00:06:55.760Z,100.00
2023-11-18T00:09:26.174Z,100.00
2023-11-18T00:11:55.142Z,100.00
2023-11-18T00:14:24.312Z,100.00
2023-11-18T00:16:53.012Z,100.00
2023-11-18T00:19:22.336Z,100.00
2023-11-18T00:21:51.110Z,100.00
2023-11-18T00:24:19.930Z,100.00
2023-11-18T00:26:50.421Z,100.00
2023-11-18T00:29:19.218Z,100.00
2023-11-18T00:31:47.950Z,100.00
2023-11-18T00:34:16.697Z,100.00
2023-11-18T00:36:45.773Z,100.00
2023-11-18T00:39:15.402Z,100.00
2023-11-18T00:41:47.216Z,100.00
2023-11-18T00:44:17.990Z,100.00
2023-11-18T00:46:46.926Z,100.00
2023-11-18T00:49:15.829Z,100.00
2023-11-18T00:51:44.550Z,100.00
2023-11-18T00:54:14.096Z,100.00
2023-11-18T00:56:43.586Z,100.00
2023-11-18T00:59:12.381Z,100.00
2023-11-18T01:01:45.356Z,100.00
2023-11-18T01:04:14.039Z,100.00
2023-11-18T01:06:42.947Z,100.00
2023-11-18T01:09:11.896Z,100.00
2023-11-18T01:11:41.369Z,100.00
2023-11-18T01:14:30.223Z,100.00
2023-11-18T01:17:00.982Z,100.00
2023-11-18T01:19:29.738Z,100.00
2023-11-18T01:22:01.553Z,100.00
2023-11-18T01:24:31.620Z,100.00
2023-11-18T01:27:00.468Z,100.00
2023-11-18T01:29:29.657Z,100.00
2023-11-18T01:32:00.239Z,100.00
2023-11-18T01:34:30.643Z,100.00
2023-11-18T01:36:59.349Z,100.00
2023-11-18T01:39:28.758Z,100.00
2023-11-18T01:42:02.831Z,100.00
2023-11-18T01:44:35.288Z,100.00
2023-11-18T01:47:12.110Z,100.00
2023-11-18T01:49:42.344Z,100.00
2023-11-18T01:52:11.381Z,100.00
2023-11-18T01:54:41.165Z,100.00
2023-11-18T01:57:10.929Z,100.00
2023-11-18T01:59:41.959Z,100.00
2023-11-18T02:02:12.893Z,100.00
2023-11-18T02:04:42.017Z,100.00
2023-11-18T02:07:10.916Z,100.00
2023-11-18T02:09:40.935Z,100.00
2023-11-18T02:12:18.897Z,100.00
2023-11-18T02:14:48.219Z,100.00
2023-11-18T02:17:21.307Z,100.00
2023-11-18T02:19:53.859Z,100.00
2023-11-18T02:22:25.721Z,100.00
2023-11-18T02:24:54.605Z,100.00
2023-11-18T02:27:27.398Z,100.00
2023-11-18T02:29:56.165Z,100.00
2023-11-18T02:32:32.067Z,100.00
2023-11-18T02:35:11.722Z,100.00
2023-11-18T02:37:43.739Z,100.00
2023-11-18T02:40:16.183Z,100.00
2023-11-18T02:42:49.610Z,100.00
2023-11-18T02:45:18.980Z,100.00
2023-11-18T02:47:47.875Z,100.00
2023-11-18T02:50:17.266Z,99.83
2023-11-18T02:52:46.508Z,99.50
2023-11-18T02:55:15.712Z,99.40
2023-11-18T02:57:45.958Z,98.21
2023-11-18T03:00:20.289Z,98.16
2023-11-18T03:02:49.687Z,98.52
2023-11-18T03:05:18.942Z,98.74
2023-11-18T03:07:51.290Z,98.23
2023-11-18T03:10:23.484Z,98.35
2023-11-18T03:12:54.919Z,98.98
2023-11-18T03:15:24.488Z,99.69
2023-11-18T03:17:53.522Z,100.00
2023-11-18T03:20:24.611Z,100.00
2023-11-18T03:22:53.802Z,100.00
2023-11-18T03:25:23.726Z,100.00
2023-11-18T03:27:55.932Z,100.00
2023-11-18T03:30:24.716Z,100.00
2023-11-18T03:32:53.494Z,100.00
2023-11-18T03:35:22.328Z,100.00
2023-11-18T03:37:51.145Z,100.00
2023-11-18T03:40:19.725Z,100.00
2023-11-18T03:42:48.729Z,100.00
2023-11-18T03:45:20.581Z,100.00
2023-11-18T03:47:51.602Z,100.00
2023-11-18T03:50:21.081Z,100.00
2023-11-18T03:52:49.680Z,100.00
2023-11-18T03:55:19.368Z,100.00
2023-11-18T03:57:48.420Z,100.00
2023-11-18T04:00:20.995Z,100.00
2023-11-18T04:02:50.094Z,100.00
2023-11-18T04:05:18.675Z,100.00
2023-11-18T04:07:47.184Z,100.00
2023-11-18T04:10:16.307Z,100.00
2023-11-18T04:12:48.018Z,100.00
2023-11-18T04:15:17.136Z,100.00
2023-11-18T04:17:47.821Z,100.00
2023-11-18T04:20:17.588Z,100.00
2023-11-18T04:22:46.585Z,100.00
2023-11-18T04:25:16.499Z,100.00
2023-11-18T04:27:47.140Z,100.00
2023-11-18T04:30:16.642Z,100.00
2023-11-18T04:32:47.269Z,100.00
2023-11-18T04:35:16.897Z,100.00
2023-11-18T04:37:47.343Z,100.00
2023-11-18T04:40:17.065Z,100.00
2023-11-18T04:42:45.678Z,100.00
2023-11-18T04:45:15.997Z,100.00
2023-11-18T04:47:46.581Z,100.00
2023-11-18T04:50:15.157Z,100.00
2023-11-18T04:52:43.802Z,100.00
2023-11-18T04:55:14.923Z,100.00
2023-11-18T04:57:44.816Z,100.00
2023-11-18T05:00:17.838Z,100.00
2023-11-18T05:02:49.320Z,100.00
2023-11-18T05:05:18.978Z,100.00
2023-11-18T05:07:47.573Z,100.00
2023-11-18T05:10:16.207Z,100.00
2023-11-18T05:12:45.964Z,100.00
2023-11-18T05:15:14.697Z,100.00
2023-11-18T05:17:43.290Z,100.00
2023-11-18T05:20:14.429Z,100.00
2023-11-18T05:22:42.962Z,100.00
2023-11-18T05:25:12.154Z,100.00
2023-11-18T05:27:42.002Z,100.00
2023-11-18T05:30:11.189Z,100.00
2023-11-18T05:32:41.273Z,100.00
2023-11-18T05:35:12.821Z,100.00
2023-11-18T05:37:43.417Z,100.00
2023-11-18T05:40:17.092Z,100.00
2023-11-18T05:42:49.673Z,100.00
2023-11-18T05:45:29.351Z,100.00
2023-11-18T05:47:58.943Z,100.00
2023-11-18T05:50:27.874Z,100.00
2023-11-18T05:52:59.238Z,100.00
2023-11-18T05:55:27.889Z,100.00
2023-11-18T05:57:56.474Z,100.00
2023-11-18T06:00:30.984Z,100.00
2023-11-18T06:03:05.196Z,100.00
2023-11-18T06:05:36.395Z,100.00
2023-11-18T06:08:07.034Z,100.00
2023-11-18T06:10:36.414Z,100.00
2023-11-18T06:13:05.920Z,100.00
2023-11-18T06:15:37.129Z,100.00
2023-11-18T06:18:06.499Z,100.00
2023-11-18T06:20:37.591Z,100.00
2023-11-18T06:23:10.606Z,100.00
2023-11-18T06:25:41.211Z,100.00
2023-11-18T06:28:10.033Z,100.00
2023-11-18T06:30:39.973Z,100.00
2023-11-18T06:33:11.372Z,100.00
2023-11-18T06:35:41.708Z,100.00
2023-11-18T06:38:14.496Z,100.00
2023-11-18T06:40:43.724Z,100.00
2023-11-18T06:43:12.334Z,100.00
2023-11-18T06:45:45.665Z,100.00
2023-11-18T06:48:16.081Z,100.00
2023-11-18T06:50:45.367Z,100.00
2023-11-18T06:53:16.545Z,100.00
2023-11-18T06:55:48.292Z,100.00
2023-11-18T06:58:16.704Z,100.00
2023-11-18T07:00:47.102Z,100.00
2023-11-18T07:03:16.131Z,100.00
2023-11-18T07:05:45.628Z,100.00
2023-11-18T07:08:15.678Z,100.00
2023-11-18T07:10:43.995Z,100.00
2023-11-18T07:13:12.368Z,100.00
2023-11-18T07:15:43.051Z,100.00
2023-11-18T07:18:13.577Z,100.00
2023-11-18T07:20:45.289Z,100.00
2023-11-18T07:23:14.093Z,100.00
2023-11-18T07:25:45.031Z,100.00
2023-11-18T07:28:16.208Z,100.00
2023-11-18T07:30:48.695Z,100.00
2023-11-18T07:33:17.292Z,100.00
2023-11-18T07:35:47.653Z,100.00
2023-11-18T07:38:16.823Z,100.00
2023-11-18T07:40:49.167Z,100.00
2023-11-18T07:43:18.644Z,100.00
2023-11-18T07:45:50.873Z,100.00
2023-11-18T07:48:19.466Z,100.00
2023-11-18T07:50:48.448Z,100.00
2023-11-18T07:53:17.330Z,100.00
2023-11-18T07:55:51.684Z,100.00
2023-11-18T07:58:21.558Z,100.00
2023-11-18T08:00:50.688Z,97.39
2023-11-18T08:03:19.429Z,95.56
2023-11-18T08:05:47.812Z,93.77
2023-11-18T08:08:18.378Z,93.17
2023-11-18T08:10:49.830Z,93.44
2023-11-18T08:13:18.788Z,93.92
2023-11-18T08:15:47.952Z,93.97
2023-11-18T08:18:16.929Z,93.85
2023-11-18T08:20:46.426Z,93.76
2023-11-18T08:23:14.969Z,92.53
2023-11-18T08:25:43.658Z,90.24
2023-11-18T08:28:15.096Z,89.23
2023-11-18T08:30:45.442Z,88.89
2023-11-18T08:33:14.664Z,89.06
2023-11-18T08:35:46.186Z,88.77
2023-11-18T08:38:14.907Z,90.22
2023-11-18T08:40:46.403Z,90.51
2023-11-18T08:43:21.217Z,91.41
2023-11-18T08:45:52.306Z,90.12
2023-11-18T08:48:21.390Z,90.52
2023-11-18T08:50:50.145Z,90.16
2023-11-18T08:53:19.917Z,89.73
2023-11-18T08:55:56.017Z,89.87
2023-11-18T08:58:29.765Z,89.86
2023-11-18T09:01:07.821Z,89.99
2023-11-18T09:03:37.597Z,89.73
2023-11-18T09:06:19.067Z,89.65
2023-11-18T09:08:54.542Z,89.75
2023-11-18T09:11:25.197Z,91.43
2023-11-18T09:13:58.629Z,90.10
2023-11-18T09:16:31.040Z,89.81
2023-11-18T09:19:03.470Z,90.18
2023-11-18T09:21:36.992Z,88.26
2023-11-18T09:24:09.401Z,89.49
2023-11-18T09:26:37.841Z,90.58
2023-11-18T09:29:09.959Z,88.25
2023-11-18T09:31:39.733Z,88.60
2023-11-18T09:34:17.314Z,86.96
2023-11-18T09:36:46.506Z,87.88
2023-11-18T09:39:30.531Z,86.71
2023-11-18T09:41:59.557Z,85.59
2023-11-18T09:44:30.163Z,85.68
2023-11-18T09:47:06.025Z,86.06
2023-11-18T09:49:42.134Z,85.55
2023-11-18T09:52:14.851Z,83.87
2023-11-18T09:54:53.760Z,85.54
2023-11-18T09:57:31.144Z,81.56
2023-11-18T10:00:12.493Z,82.36
2023-11-18T10:02:42.655Z,81.93
2023-11-18T10:05:14.040Z,80.71
2023-11-18T10:07:44.371Z,79.98
2023-11-18T10:10:16.113Z,80.55
2023-11-18T10:12:46.157Z,79.22
2023-11-18T10:15:18.470Z,78.47
2023-11-18T10:17:56.546Z,78.37
2023-11-18T10:20:27.248Z,74.49
2023-11-18T10:23:12.645Z,75.54
2023-11-18T10:25:45.652Z,74.93
2023-11-18T10:28:24.932Z,72.49
2023-11-18T10:30:54.764Z,69.19
2023-11-18T10:33:24.770Z,68.53
2023-11-18T10:35:57.133Z,67.63
2023-11-18T10:38:27.700Z,67.69
2023-11-18T10:40:57.556Z,68.90
2023-11-18T10:43:26.898Z,71.08
2023-11-18T10:46:13.370Z,71.46
2023-11-18T10:48:44.111Z,70.75
2023-11-18T10:51:14.763Z,65.72
2023-11-18T10:53:54.681Z,63.16
2023-11-18T10:56:29.175Z,62.17
2023-11-18T10:58:59.717Z,62.35
2023-11-18T11:01:33.969Z,62.97
2023-11-18T11:04:06.168Z,63.74
2023-11-18T11:06:36.129Z,65.28
2023-11-18T11:09:11.166Z,69.38
2023-11-18T11:11:43.207Z,67.62
2023-11-18T11:14:13.138Z,69.03
2023-11-18T11:16:48.835Z,66.95
2023-11-18T11:19:27.325Z,68.56
2023-11-18T11:22:04.369Z,68.16
2023-11-18T11:24:52.174Z,67.49
2023-11-18T11:27:30.549Z,68.59
2023-11-18T11:30:11.617Z,67.36
2023-11-18T11:32:49.455Z,68.70
2023-11-18T11:35:23.337Z,69.71
2023-11-18T11:37:54.865Z,67.83
2023-11-18T11:40:24.562Z,69.44
2023-11-18T11:42:56.699Z,69.89
2023-11-18T11:45:29.855Z,65.37
2023-11-18T11:48:15.801Z,66.65
2023-11-18T11:50:55.566Z,67.56
2023-11-18T11:53:26.800Z,65.22
2023-11-18T11:56:06.629Z,62.78
2023-11-18T11:58:39.205Z,61.47
2023-11-18T12:01:25.001Z,60.96
2023-11-18T12:03:59.564Z,59.34
2023-11-18T12:06:30.008Z,52.99
2023-11-18T12:09:01.663Z,54.63
2023-11-18T12:11:38.593Z,54.77
2023-11-18T12:14:33.981Z,53.22
2023-11-18T12:17:11.349Z,51.27
2023-11-18T12:19:49.627Z,53.03
2023-11-18T12:22:26.213Z,53.04
2023-11-18T12:25:34.993Z,50.83
2023-11-18T12:28:11.654Z,51.10
2023-11-18T12:30:45.366Z,47.00
2023-11-18T12:33:20.368Z,42.94
2023-11-18T12:36:18.809Z,37.03
2023-11-18T12:39:15.603Z,34.74
2023-11-18T12:41:45.261Z,31.93
2023-11-18T12:44:33.149Z,32.62
2023-11-18T12:47:15.623Z,32.47
2023-11-18T12:49:45.066Z,36.72
2023-11-18T12:52:16.613Z,38.45
2023-11-18T12:54:52.213Z,37.89
2023-11-18T12:57:24.585Z,37.12
2023-11-18T12:59:54.456Z,38.90
2023-11-18T13:02:25.245Z,38.45
2023-11-18T13:04:54.527Z,37.55
2023-11-18T13:07:26.458Z,35.04
2023-11-18T13:09:55.843Z,34.33
2023-11-18T13:12:25.220Z,34.39
2023-11-18T13:14:53.957Z,35.02
2023-11-18T13:17:23.324Z,33.79
2023-11-18T13:19:55.722Z,31.21
2023-11-18T13:22:39.026Z,32.36
2023-11-18T13:25:15.709Z,34.13
2023-11-18T13:27:44.714Z,33.96
2023-11-18T13:30:15.212Z,34.53
2023-11-18T13:32:44.444Z,31.03
2023-11-18T13:35:15.378Z,31.55
2023-11-18T13:37:49.600Z,34.23
2023-11-18T13:40:19.677Z,35.10
2023-11-18T13:42:49.240Z,37.71
2023-11-18T13:45:30.786Z,41.42
2023-11-18T13:48:08.401Z,45.03
2023-11-18T13:50:38.848Z,49.18
2023-11-18T13:53:09.928Z,50.73
2023-11-18T13:55:40.162Z,52.36
2023-11-18T13:58:12.226Z,53.78
2023-11-18T14:00:43.026Z,55.62
2023-11-18T14:03:14.061Z,53.88
2023-11-18T14:05:47.588Z,48.62
2023-11-18T14:08:21.751Z,43.87
2023-11-18T14:11:02.128Z,42.92
2023-11-18T14:13:34.244Z,40.37
2023-11-18T14:16:03.191Z,40.15
2023-11-18T14:18:31.814Z,42.84
2023-11-18T14:21:02.212Z,46.58
2023-11-18T14:23:32.861Z,49.73
2023-11-18T14:26:01.264Z,53.14
2023-11-18T14:28:30.518Z,56.46
2023-11-18T14:30:59.219Z,59.66
2023-11-18T14:33:27.908Z,61.92
2023-11-18T14:35:57.590Z,63.13
2023-11-18T14:38:26.688Z,65.56
2023-11-18T14:40:57.931Z,65.32
2023-11-18T14:43:26.590Z,66.81
2023-11-18T14:45:55.355Z,67.28
2023-11-18T14:48:24.954Z,68.95
2023-11-18T14:50:54.277Z,70.15
2023-11-18T14:53:23.880Z,71.27
2023-11-18T14:55:52.578Z,74.08
2023-11-18T14:58:23.559Z,75.57
2023-11-18T15:00:52.384Z,77.18
2023-11-18T15:03:24.790Z,78.42
2023-11-18T15:05:54.058Z,78.81
2023-11-18T15:08:22.835Z,79.99
2023-11-18T15:10:52.315Z,81.39
2023-11-18T15:13:22.608Z,81.70
2023-11-18T15:15:51.478Z,81.98
2023-11-18T15:18:21.357Z,83.65
2023-11-18T15:20:49.842Z,85.34
2023-11-18T15:23:19.792Z,86.26
2023-11-18T15:25:49.256Z,87.50
2023-11-18T15:28:20.082Z,88.13
2023-11-18T15:30:50.033Z,88.08
2023-11-18T15:33:19.421Z,89.10
2023-11-18T15:35:47.978Z,90.58
2023-11-18T15:38:20.396Z,91.38
2023-11-18T15:40:52.365Z,91.48
2023-11-18T15:43:21.568Z,91.29
2023-11-18T15:45:52.169Z,91.42
2023-11-18T15:48:21.738Z,92.70
2023-11-18T15:50:51.169Z,93.14
2023-11-18T15:53:21.117Z,94.24
2023-11-18T15:55:49.886Z,95.47
2023-11-18T15:58:20.647Z,96.12
2023-11-18T16:00:53.836Z,95.90
2023-11-18T16:03:24.157Z,96.38
2023-11-18T16:05:56.125Z,96.11
2023-11-18T16:08:25.050Z,96.81
2023-11-18T16:10:55.667Z,96.78
2023-11-18T16:13:24.594Z,97.58
2023-11-18T16:15:53.614Z,98.12
2023-11-18T16:18:24.265Z,98.58
2023-11-18T16:20:53.103Z,98.55
2023-11-18T16:23:22.630Z,98.66
2023-11-18T16:25:51.300Z,98.50
2023-11-18T16:28:20.118Z,97.67
2023-11-18T16:30:48.994Z,98.00
2023-11-18T16:33:18.097Z,97.88
2023-11-18T16:35:48.314Z,97.96
2023-11-18T16:38:17.249Z,97.95
2023-11-18T16:40:45.778Z,98.60
2023-11-18T16:43:14.429Z,98.79
2023-11-18T16:45:43.502Z,99.82
2023-11-18T16:48:12.160Z,100.00
2023-11-18T16:50:41.317Z,99.89
2023-11-18T16:53:12.531Z,99.51
2023-11-18T16:55:41.238Z,99.18
2023-11-18T16:58:10.331Z,99.89
2023-11-18T17:00:39.708Z,100.00
2023-11-18T17:03:08.973Z,99.96
2023-11-18T17:05:38.136Z,100.00
2023-11-18T17:08:07.747Z,100.00
2023-11-18T17:10:38.785Z,100.00
2023-11-18T17:13:09.890Z,100.00
2023-11-18T17:15:38.730Z,100.00
2023-11-18T17:18:07.635Z,100.00
2023-11-18T17:20:37.726Z,100.00
2023-11-18T17:23:07.594Z,100.00
2023-11-18T17:25:38.370Z,100.00
2023-11-18T17:28:09.626Z,100.00
2023-11-18T17:30:44.931Z,100.00
2023-11-18T17:33:13.887Z,100.00
2023-11-18T17:35:44.263Z,100.00
2023-11-18T17:38:14.390Z,100.00
2023-11-18T17:40:45.155Z,100.00
2023-11-18T17:43:14.055Z,100.00
2023-11-18T17:45:42.940Z,100.00
2023-11-18T17:48:11.792Z,100.00
2023-11-18T17:50:41.308Z,100.00
2023-11-18T17:53:11.039Z,100.00
2023-11-18T17:55:43.987Z,100.00
2023-11-18T17:58:12.936Z,100.00
2023-11-18T18:00:42.458Z,100.00
2023-11-18T18:03:11.954Z,100.00
2023-11-18T18:05:40.603Z,100.00
2023-11-18T18:08:09.869Z,100.00
2023-11-18T18:10:38.617Z,100.00
2023-11-18T18:13:10.909Z,100.00
2023-11-18T18:15:45.973Z,100.00
2023-11-18T18:18:16.664Z,100.00
2023-11-18T18:20:49.479Z,100.00
2023-11-18T18:23:18.284Z,100.00
2023-11-18T18:25:47.441Z,100.00
2023-11-18T18:28:17.994Z,100.00
2023-11-18T18:30:46.665Z,100.00
2023-11-18T18:33:19.503Z,100.00
2023-11-18T18:35:48.420Z,100.00
2023-11-18T18:38:17.446Z,100.00
2023-11-18T18:40:46.836Z,100.00
2023-11-18T18:43:17.245Z,100.00
2023-11-18T18:45:46.738Z,100.00
2023-11-18T18:48:15.949Z,100.00
2023-11-18T18:50:45.305Z,100.00
2023-11-18T18:53:14.874Z,100.00
2023-11-18T18:55:44.901Z,100.00
2023-11-18T18:58:14.974Z,100.00
2023-11-18T19:00:45.367Z,100.00
2023-11-18T19:03:14.382Z,100.00
2023-11-18T19:05:43.451Z,100.00
2023-11-18T19:08:12.415Z,100.00
2023-11-18T19:10:41.164Z,100.00
2023-11-18T19:13:10.203Z,100.00
2023-11-18T19:15:39.550Z,100.00
2023-11-18T19:18:10.215Z,100.00
2023-11-18T19:20:39.306Z,100.00
2023-11-18T19:23:08.750Z,100.00
2023-11-18T19:25:37.392Z,100.00
2023-11-18T19:28:10.565Z,100.00
2023-11-18T19:30:41.343Z,100.00
2023-11-18T19:33:13.297Z,100.00
2023-11-18T19:35:42.143Z,100.00
2023-11-18T19:38:11.036Z,100.00
2023-11-18T19:40:40.035Z,100.00
2023-11-18T19:43:10.780Z,100.00
2023-11-18T19:45:40.537Z,100.00
2023-11-18T19:48:09.636Z,100.00
2023-11-18T19:50:39.740Z,100.00
2023-11-18T19:53:09.257Z,100.00
2023-11-18T19:55:38.424Z,100.00
2023-11-18T19:58:07.127Z,100.00
2023-11-18T20:00:45.852Z,100.00
2023-11-18T20:03:15.831Z,100.00
2023-11-18T20:05:45.948Z,100.00
2023-11-18T20:08:14.692Z,100.00
2023-11-18T20:10:43.734Z,100.00
2023-11-18T20:13:12.603Z,100.00
2023-11-18T20:15:41.450Z,100.00
2023-11-18T20:18:11.600Z,100.00
2023-11-18T20:20:40.569Z,100.00
2023-11-18T20:23:12.350Z,100.00
2023-11-18T20:25:41.952Z,100.00
2023-11-18T20:28:10.908Z,100.00
2023-11-18T20:30:40.509Z,100.00
2023-11-18T20:33:09.455Z,100.00
2023-11-18T20:35:39.310Z,100.00
2023-11-18T20:38:08.342Z,100.00
2023-11-18T20:40:38.952Z,100.00
2023-11-18T20:43:09.158Z,100.00
2023-11-18T20:45:41.839Z,100.00
2023-11-18T20:48:12.564Z,100.00
2023-11-18T20:50:45.437Z,100.00
2023-11-18T20:53:16.583Z,100.00
2023-11-18T20:55:47.141Z,100.00
2023-11-18T20:58:16.076Z,100.00
2023-11-18T21:00:44.975Z,100.00
2023-11-18T21:03:14.039Z,100.00
2023-11-18T21:05:43.771Z,100.00
2023-11-18T21:08:14.194Z,100.00
2023-11-18T21:10:45.135Z,100.00
2023-11-18T21:13:15.119Z,100.00
2023-11-18T21:15:44.957Z,100.00
2023-11-18T21:18:13.930Z,100.00
2023-11-18T21:20:43.089Z,100.00
2023-11-18T21:23:11.692Z,100.00
2023-11-18T21:25:40.286Z,100.00
2023-11-18T21:28:09.588Z,100.00
2023-11-18T21:30:39.952Z,100.00
2023-11-18T21:33:10.698Z,100.00
2023-11-18T21:35:40.762Z,100.00
2023-11-18T21:38:09.541Z,100.00
2023-11-18T21:40:38.029Z,100.00
2023-11-18T21:43:07.254Z,100.00
2023-11-18T21:45:38.842Z,100.00
2023-11-18T21:48:09.647Z,100.00
2023-11-18T21:50:38.512Z,100.00
2023-11-18T21:53:08.093Z,100.00
2023-11-18T21:55:37.229Z,100.00
2023-11-18T21:58:08.302Z,100.00
2023-11-18T22:00:45.424Z,100.00
2023-11-18T22:03:16.920Z,100.00
2023-11-18T22:05:46.255Z,100.00
2023-11-18T22:08:20.556Z,100.00
2023-11-18T22:10:49.494Z,100.00
2023-11-18T22:13:18.545Z,100.00
2023-11-18T22:15:48.194Z,100.00
2023-11-18T22:18:18.600Z,100.00
2023-11-18T22:20:47.290Z,100.00
2023-11-18T22:23:16.555Z,100.00
2023-11-18T22:25:49.694Z,100.00
2023-11-18T22:28:18.348Z,100.00
2023-11-18T22:30:49.106Z,100.00
2023-11-18T22:35:51.952Z,100.00
2023-11-18T22:38:20.651Z,100.00
2023-11-18T22:40:49.377Z,100.00
2023-11-18T22:43:20.882Z,100.00
2023-11-18T22:45:51.974Z,100.00
2023-11-18T22:48:22.528Z,100.00
2023-11-18T22:50:51.577Z,100.00
2023-11-18T22:53:20.185Z,100.00
2023-11-18T22:55:49.658Z,100.00
2023-11-18T22:58:18.476Z,100.00
2023-11-18T23:00:54.634Z,100.00
2023-11-18T23:03:27.697Z,100.00
2023-11-18T23:06:09.854Z,100.00
2023-11-18T23:08:40.618Z,100.00
2023-11-18T23:11:09.399Z,100.00
2023-11-18T23:13:37.960Z,100.00
2023-11-18T23:16:12.885Z,100.00
2023-11-18T23:18:44.073Z,100.00
2023-11-18T23:21:16.206Z,100.00
2023-11-18T23:23:46.002Z,100.00
2023-11-18T23:26:15.032Z,100.00
2023-11-18T23:28:43.938Z,100.00
2023-11-18T23:31:13.806Z,100.00
2023-11-18T23:33:46.075Z,100.00
2023-11-18T23:36:17.512Z,100.00
2023-11-18T23:38:47.566Z,100.00
2023-11-18T23:41:17.875Z,100.00
2023-11-18T23:43:47.361Z,100.00
2023-11-18T23:46:15.874Z,100.00
2023-11-18T23:48:45.214Z,100.00
2023-11-18T23:51:14.091Z,100.00
2023-11-18T23:53:43.365Z,100.00
2023-11-18T23:56:12.829Z,100.00
2023-11-18T23:58:42.239Z,100.00
